OMAA/AUH METAR and TAF weather

Enter ICAO airport designator
Station Type Date Time Source
OMAA METAR 2022/06/26 08:00 UTC NOAA

OMAA 260800Z 29010KT CAVOK 41/20 Q0996 NOSIG


Station Type Date Time Source
OMAA Decoded METAR 2022/06/26 08:00 UTC NOAA

Abu Dhabi International Airport, United Arab Emirates (OMAA) 24-26N 054-39E 27M
Jun 26, 2022 - 04:00 AM EDT / 2022.06.26 0800 UTC
Wind: from the WNW (290 degrees) at 12 MPH (10 KT):0
Visibility: greater than 7 mile(s):0
Temperature: 105 F (41 C)
Heat index: 111.6 F (44.2 C):1
Dew Point: 68 F (20 C)
Relative Humidity: 30%
Pressure (altimeter): 29.41 in. Hg (0996 hPa)
ob: OMAA 260800Z 29010KT CAVOK 41/20 Q0996 NOSIG
cycle: 8

Station Type Date Time Source
OMAA TAF 2022/06/26 06:05 UTC NOAA

TAF OMAA 260500Z 2606/2712 28012KT 8000 NSC
BECMG 2617/2619 21005KT PROB30
TEMPO 2701/2704 2000 BR BKN005
BECMG 2706/2708 30012KT

Example: see airport list